Kingston, GA (30145)

10:33 AM EST on 十一月 23, 2014 (GMT -0500)
Cartersville | Change Station
CLOSE
Current Station
空港
Location: Cartersville,
高度: 764 ft
最寄りの気象観測所

高度 764 ft 34.12 °N, 84.85 °W | Updated 6 minutes ago

雨
50 °F
体感気温 50 °F
12
風 変数 風 から
Gusts 20 Mph

今日
高い -- | 低 -- °F
--% 降水確率
昨日
高い -- | 低 -- °F
Precip. -- インチ
7:20 AM 5:31 PM
新月, 2% visible
気圧 29.97 インチ
視程 4.0 マイル
だいたい曇 800 ft
だいたい曇 1300 ft
曇 3000 ft
露点温度 48 °F
湿度 93%
降水 0.39 インチ
積雪深 利用不可。
紫外線 1 の内の 12
花粉 .30 の内の 12
空気品質 利用不可。
Flu Activity 利用不可。
SPECI KVPC 231527Z AUTO 10010G17KT 4SM -RA BR BKN008 BKN013 OVC030 10/09 A2997 RMK AO2 P0006 T01000089

More Conditions Fewer Conditions

気圧 29.97 インチ
視程 4.0 マイル
だいたい曇 800 ft
だいたい曇 1300 ft
曇 3000 ft
露点温度 48 °F
湿度 93%
降水 0.39 インチ
積雪深 利用不可。
紫外線 1 の内の 12
花粉 .30 の内の 12
空気品質 利用不可。
Flu Activity 利用不可。
SPECI KVPC 231527Z AUTO 10010G17KT 4SM -RA BR BKN008 BKN013 OVC030 10/09 A2997 RMK AO2 P0006 T01000089

More Conditions Fewer Conditions

10-Day Weather Forecast

Almanac

天文

Nov. 23, 2014 入り
実時間
常用薄明
航海薄明
天文薄明
可視光の長さ
可照時間
Tomorrow will be .
, % of the Moon is Illuminated

今日の極値

State Highs State Lows

Community

WunderPhotos

Upload Photos

1,773,083 写真がアップロードされました!

WunderBlogs® & News

Nearby

空気品質

  空気品質 大気質指数 汚染物質
Not available.

積雪深

Station Depth 高度

地震活動

Distance Mag. Time & Date
Minimum magnitude displayed is 2.5.

沿岸の水温

地名 気温

最寄りの気象観測所